createdAt,value
2018-12-23T00:01:06.873Z,24.57
2018-12-23T00:03:34.400Z,21.10
2018-12-23T00:06:02.823Z,20.43
2018-12-23T00:08:30.075Z,31.27
2018-12-23T00:10:57.399Z,21.43
2018-12-23T00:13:24.892Z,22.13
2018-12-23T00:15:52.427Z,26.43
2018-12-23T00:18:19.950Z,20.30
2018-12-23T00:20:47.611Z,21.80
2018-12-23T00:23:15.101Z,16.67
2018-12-23T00:25:42.374Z,12.67
2018-12-23T00:28:09.653Z,23.50
2018-12-23T00:30:36.945Z,19.10
2018-12-23T00:33:04.223Z,23.73
2018-12-23T00:35:31.494Z,26.87
2018-12-23T00:37:58.765Z,20.93
2018-12-23T00:40:26.046Z,15.17
2018-12-23T00:42:53.305Z,17.47
2018-12-23T00:45:20.620Z,16.20
2018-12-23T00:47:47.896Z,26.77
2018-12-23T00:50:15.176Z,12.50
2018-12-23T00:52:43.567Z,20.63
2018-12-23T00:55:10.829Z,15.17
2018-12-23T00:57:38.093Z,16.17
2018-12-23T01:00:06.629Z,21.10
2018-12-23T01:02:34.087Z,20.70
2018-12-23T01:05:01.341Z,12.60
2018-12-23T01:07:28.591Z,22.93
2018-12-23T01:09:55.849Z,18.47
2018-12-23T01:12:23.583Z,21.33
2018-12-23T01:14:50.826Z,17.70
2018-12-23T01:17:18.080Z,19.77
2018-12-23T01:19:45.331Z,15.37
2018-12-23T01:22:12.576Z,21.70
2018-12-23T01:24:39.812Z,16.60
2018-12-23T01:27:07.082Z,20.20
2018-12-23T01:29:34.436Z,21.90
2018-12-23T01:32:01.804Z,24.23
2018-12-23T01:34:36.903Z,21.80
2018-12-23T01:36:58.323Z,25.03
2018-12-23T01:39:25.806Z,20.23
2018-12-23T01:41:53.088Z,19.23
2018-12-23T01:44:20.303Z,20.23
2018-12-23T01:46:47.592Z,23.30
2018-12-23T01:49:14.829Z,16.60
2018-12-23T01:51:42.114Z,17.60
2018-12-23T01:54:09.633Z,27.90
2018-12-23T01:56:36.895Z,19.97
2018-12-23T01:59:04.159Z,26.23
2018-12-23T02:01:31.440Z,22.93
2018-12-23T02:03:58.666Z,26.73
2018-12-23T02:06:25.985Z,17.70
2018-12-23T02:08:53.354Z,23.63
2018-12-23T02:11:20.717Z,26.53
2018-12-23T02:13:48.074Z,23.97
2018-12-23T02:16:15.325Z,23.90
2018-12-23T02:18:42.613Z,19.23
2018-12-23T02:21:09.952Z,28.07
2018-12-23T02:23:37.207Z,24.03
2018-12-23T02:26:04.457Z,23.07
2018-12-23T02:28:31.716Z,18.60
2018-12-23T02:30:59.298Z,21.03
2018-12-23T02:33:26.550Z,22.33
2018-12-23T02:35:55.769Z,25.30
2018-12-23T02:38:23.117Z,23.70
2018-12-23T02:40:50.349Z,29.10
2018-12-23T02:43:18.034Z,21.53
2018-12-23T02:45:45.267Z,19.93
2018-12-23T02:48:12.503Z,27.57
2018-12-23T02:50:39.761Z,27.10
2018-12-23T02:53:07.091Z,21.53
2018-12-23T02:55:34.332Z,23.43
2018-12-23T02:58:01.756Z,20.20
2018-12-23T03:00:29.006Z,23.37
2018-12-23T03:02:56.256Z,19.83
2018-12-23T03:05:23.517Z,16.73
2018-12-23T03:07:50.793Z,30.10
2018-12-23T03:10:18.042Z,30.17
2018-12-23T03:12:45.317Z,25.20
2018-12-23T03:15:12.712Z,42.60
2018-12-23T03:17:40.049Z,32.67
2018-12-23T03:20:07.422Z,32.33
2018-12-23T03:22:34.659Z,26.10
2018-12-23T03:25:01.952Z,21.80
2018-12-23T03:27:29.209Z,22.20
2018-12-23T03:29:56.466Z,22.20
2018-12-23T03:32:23.712Z,28.13
2018-12-23T03:34:51.029Z,32.57
2018-12-23T03:37:18.262Z,22.10
2018-12-23T03:39:45.517Z,32.13
2018-12-23T03:42:12.762Z,33.47
2018-12-23T03:44:40.000Z,22.33
2018-12-23T03:47:07.222Z,26.73
2018-12-23T03:49:34.480Z,32.63
2018-12-23T03:52:01.785Z,33.00
2018-12-23T03:54:29.037Z,35.17
2018-12-23T03:56:56.269Z,27.53
2018-12-23T03:59:23.554Z,35.23
2018-12-23T04:01:50.809Z,40.33
2018-12-23T04:04:18.049Z,25.87
2018-12-23T04:06:45.291Z,33.70
2018-12-23T04:09:12.545Z,30.70
2018-12-23T04:11:39.880Z,31.30
2018-12-23T04:14:07.131Z,28.57
2018-12-23T04:16:34.344Z,24.13
2018-12-23T04:19:01.591Z,37.20
2018-12-23T04:21:28.836Z,22.40
2018-12-23T04:23:56.199Z,30.53
2018-12-23T04:26:23.445Z,22.73
2018-12-23T04:28:50.668Z,27.30
2018-12-23T04:31:17.921Z,24.93
2018-12-23T04:33:45.147Z,31.37
2018-12-23T04:36:12.393Z,26.70
2018-12-23T04:38:39.640Z,37.67
2018-12-23T04:41:06.877Z,31.63
2018-12-23T04:43:34.165Z,43.87
2018-12-23T04:46:01.402Z,32.47
2018-12-23T04:48:28.619Z,27.17
2018-12-23T04:50:55.977Z,26.10
2018-12-23T04:53:23.204Z,33.63
2018-12-23T04:55:50.463Z,37.97
2018-12-23T04:58:17.686Z,39.30
2018-12-23T05:00:44.934Z,27.20
2018-12-23T05:03:12.157Z,33.03
2018-12-23T05:05:39.391Z,36.30
2018-12-23T05:08:06.597Z,36.20
2018-12-23T05:10:33.848Z,42.60
2018-12-23T05:13:01.092Z,26.90
2018-12-23T05:15:28.358Z,26.07
2018-12-23T05:17:55.582Z,32.97
2018-12-23T05:20:22.833Z,35.20
2018-12-23T05:22:50.084Z,39.53
2018-12-23T05:25:17.318Z,34.10
2018-12-23T05:27:44.527Z,33.73
2018-12-23T05:30:11.778Z,41.60
2018-12-23T05:32:39.001Z,36.90
2018-12-23T05:35:06.267Z,44.43
2018-12-23T05:37:33.468Z,38.37
2018-12-23T05:40:00.657Z,42.87
2018-12-23T05:42:27.936Z,36.63
2018-12-23T05:44:55.225Z,42.30
2018-12-23T05:47:22.806Z,41.83
2018-12-23T05:49:50.054Z,40.67
2018-12-23T05:52:17.268Z,44.90
2018-12-23T05:54:44.541Z,41.63
2018-12-23T05:57:11.789Z,50.40
2018-12-23T05:59:39.045Z,40.07
2018-12-23T06:02:06.352Z,46.83
2018-12-23T06:04:33.687Z,53.13
2018-12-23T06:07:01.294Z,49.33
2018-12-23T06:09:28.628Z,48.67
2018-12-23T06:11:55.901Z,47.40
2018-12-23T06:14:23.178Z,43.13
2018-12-23T06:16:50.474Z,47.83
2018-12-23T06:19:17.738Z,42.97
2018-12-23T06:21:45.006Z,49.20
2018-12-23T06:24:12.228Z,56.63
2018-12-23T06:26:39.454Z,47.50
2018-12-23T06:29:06.703Z,52.33
2018-12-23T06:31:34.081Z,47.37
2018-12-23T06:34:01.306Z,51.17
2018-12-23T06:36:28.553Z,49.80
2018-12-23T06:38:55.862Z,54.23
2018-12-23T06:41:23.134Z,50.80
2018-12-23T06:43:50.409Z,51.00
2018-12-23T06:46:17.647Z,46.73
2018-12-23T06:48:44.866Z,48.97
2018-12-23T06:51:12.127Z,60.47
2018-12-23T06:53:39.366Z,54.83
2018-12-23T06:56:06.573Z,45.70
2018-12-23T06:58:33.833Z,66.63
2018-12-23T07:01:01.261Z,53.53
2018-12-23T07:03:28.477Z,59.80
2018-12-23T07:05:55.755Z,54.27
2018-12-23T07:08:23.039Z,61.03
2018-12-23T07:10:50.265Z,50.63
2018-12-23T07:13:17.500Z,57.20
2018-12-23T07:15:44.725Z,47.17
2018-12-23T07:18:11.966Z,48.60
2018-12-23T07:20:39.211Z,53.43
2018-12-23T07:23:06.456Z,50.20
2018-12-23T07:25:33.681Z,58.57
2018-12-23T07:28:00.952Z,54.33
2018-12-23T07:30:28.189Z,53.93
2018-12-23T07:32:55.447Z,49.83
2018-12-23T07:35:22.734Z,52.23
2018-12-23T07:37:49.999Z,62.70
2018-12-23T07:40:17.266Z,54.30
2018-12-23T07:42:44.564Z,58.40
2018-12-23T07:45:11.818Z,54.50
2018-12-23T07:47:39.104Z,59.77
2018-12-23T07:50:06.334Z,53.83
2018-12-23T07:52:33.578Z,59.67
2018-12-23T07:55:00.856Z,50.33
2018-12-23T07:57:28.514Z,47.77
2018-12-23T07:59:55.854Z,52.37
2018-12-23T08:02:23.101Z,54.13
2018-12-23T08:04:50.326Z,55.10
2018-12-23T08:07:17.532Z,57.27
2018-12-23T08:09:44.801Z,51.37
2018-12-23T08:12:12.053Z,42.40
2018-12-23T08:14:39.381Z,48.53
2018-12-23T08:17:06.627Z,49.80
2018-12-23T08:19:33.873Z,49.50
2018-12-23T08:22:01.098Z,55.63
2018-12-23T08:24:28.353Z,47.70
2018-12-23T08:26:55.600Z,54.80
2018-12-23T08:29:22.900Z,49.40
2018-12-23T08:31:50.300Z,50.70
2018-12-23T08:34:17.533Z,52.63
2018-12-23T08:36:44.775Z,46.87
2018-12-23T08:39:12.011Z,46.00
2018-12-23T08:41:39.352Z,46.07
2018-12-23T08:44:06.699Z,55.00
2018-12-23T08:46:39.103Z,47.27
2018-12-23T08:49:03.269Z,56.07
2018-12-23T08:51:30.538Z,54.83
2018-12-23T08:53:57.804Z,50.53
2018-12-23T08:56:25.029Z,48.23
2018-12-23T08:58:52.353Z,53.03
2018-12-23T09:01:19.612Z,53.50
2018-12-23T09:03:46.906Z,45.43
2018-12-23T09:06:14.161Z,52.70
2018-12-23T09:08:41.450Z,52.07
2018-12-23T09:11:08.746Z,51.33
2018-12-23T09:13:36.036Z,51.23
2018-12-23T09:16:03.499Z,49.40
2018-12-23T09:18:30.732Z,57.47
2018-12-23T09:20:57.962Z,54.20
2018-12-23T09:23:25.211Z,47.53
2018-12-23T09:25:52.454Z,47.73
2018-12-23T09:28:19.741Z,47.43
2018-12-23T09:30:46.990Z,44.73
2018-12-23T09:33:14.221Z,43.60
2018-12-23T09:35:41.522Z,52.77
2018-12-23T09:38:09.250Z,54.30
2018-12-23T09:40:36.498Z,48.57
2018-12-23T09:43:03.839Z,45.30
2018-12-23T09:45:31.137Z,52.73
2018-12-23T09:47:58.356Z,44.87
2018-12-23T09:50:25.630Z,45.87
2018-12-23T09:52:52.960Z,48.33
2018-12-23T09:55:20.324Z,49.70
2018-12-23T09:57:47.570Z,53.67
2018-12-23T10:00:14.886Z,51.93
2018-12-23T10:02:42.109Z,47.27
2018-12-23T10:05:09.477Z,42.20
2018-12-23T10:07:38.056Z,45.67
2018-12-23T10:10:05.856Z,48.80
2018-12-23T10:12:33.125Z,47.23
2018-12-23T10:15:00.414Z,50.80
2018-12-23T10:17:27.692Z,47.23
2018-12-23T10:19:54.947Z,44.47
2018-12-23T10:22:22.181Z,50.47
2018-12-23T10:24:49.447Z,50.43
2018-12-23T10:27:16.703Z,43.47
2018-12-23T10:29:44.009Z,45.40
2018-12-23T10:32:11.222Z,52.13
2018-12-23T10:34:38.558Z,54.37
2018-12-23T10:37:05.814Z,53.57
2018-12-23T10:39:33.067Z,42.23
2018-12-23T10:42:00.348Z,50.77
2018-12-23T10:44:33.854Z,40.53
2018-12-23T10:47:01.957Z,51.93
2018-12-23T10:49:29.446Z,53.57
2018-12-23T10:51:56.799Z,43.10
2018-12-23T10:54:24.073Z,38.47
2018-12-23T10:56:51.353Z,43.17
2018-12-23T10:59:18.566Z,44.73
2018-12-23T11:01:45.847Z,43.10
2018-12-23T11:04:13.064Z,45.00
2018-12-23T11:06:40.336Z,42.20
2018-12-23T11:09:07.536Z,35.20
2018-12-23T11:11:34.795Z,47.60
2018-12-23T11:14:02.040Z,44.47
2018-12-23T11:16:29.291Z,41.67
2018-12-23T11:18:56.552Z,34.90
2018-12-23T11:21:23.805Z,35.00
2018-12-23T11:23:52.019Z,44.30
2018-12-23T11:26:19.359Z,36.60
2018-12-23T11:28:46.576Z,44.07
2018-12-23T11:31:13.816Z,47.73
2018-12-23T11:33:41.055Z,37.50
2018-12-23T11:36:08.461Z,42.90
2018-12-23T11:38:35.909Z,43.13
2018-12-23T11:41:03.460Z,42.13
2018-12-23T11:43:30.689Z,35.37
2018-12-23T11:45:57.913Z,46.80
2018-12-23T11:48:25.149Z,48.10
2018-12-23T11:50:52.425Z,38.13
2018-12-23T11:53:19.645Z,36.27
2018-12-23T11:55:46.885Z,47.87
2018-12-23T11:58:14.099Z,34.63
2018-12-23T12:00:41.357Z,38.90
2018-12-23T12:03:08.673Z,48.10
2018-12-23T12:05:36.519Z,39.10
2018-12-23T12:08:03.889Z,40.23
2018-12-23T12:10:31.153Z,37.30
2018-12-23T12:12:58.367Z,41.07
2018-12-23T12:15:25.671Z,43.23
2018-12-23T12:17:53.444Z,47.17
2018-12-23T12:20:20.768Z,37.27
2018-12-23T12:22:48.061Z,35.40
2018-12-23T12:25:15.378Z,36.80
2018-12-23T12:27:42.585Z,46.60
2018-12-23T12:30:09.853Z,43.53
2018-12-23T12:32:37.105Z,43.80
2018-12-23T12:35:04.480Z,37.13
2018-12-23T12:37:31.758Z,51.83
2018-12-23T12:39:58.984Z,39.40
2018-12-23T12:42:26.253Z,43.40
2018-12-23T12:44:53.443Z,45.93
2018-12-23T12:47:20.708Z,47.97
2018-12-23T12:49:47.964Z,41.30
2018-12-23T12:52:15.192Z,55.17
2018-12-23T12:54:42.402Z,39.30
2018-12-23T12:57:09.651Z,42.83
2018-12-23T12:59:36.861Z,46.53
2018-12-23T13:02:04.266Z,40.80
2018-12-23T13:04:31.509Z,40.50
2018-12-23T13:06:58.805Z,44.97
2018-12-23T13:09:26.047Z,39.17
2018-12-23T13:11:53.299Z,48.90
2018-12-23T13:14:20.510Z,37.40
2018-12-23T13:16:47.758Z,36.73
2018-12-23T13:19:15.002Z,42.80
2018-12-23T13:21:42.224Z,43.27
2018-12-23T13:24:09.492Z,44.50
2018-12-23T13:26:36.741Z,36.87
2018-12-23T13:29:04.067Z,52.47
2018-12-23T13:31:31.304Z,38.73
2018-12-23T13:33:58.509Z,28.47
2018-12-23T13:36:25.787Z,30.80
2018-12-23T13:38:53.004Z,44.87
2018-12-23T13:41:31.936Z,45.07
2018-12-23T13:44:46.605Z,31.67
2018-12-23T13:47:33.796Z,34.80
2018-12-23T13:53:16.868Z,32.43
2018-12-23T13:56:13.313Z,29.93
2018-12-23T13:58:48.718Z,35.40
2018-12-23T14:01:33.505Z,31.20
2018-12-23T14:04:39.419Z,28.10
2018-12-23T14:07:26.852Z,25.83
2018-12-23T14:10:22.773Z,25.60
2018-12-23T14:12:50.364Z,28.40
2018-12-23T14:15:17.585Z,22.30
2018-12-23T14:17:44.946Z,24.27
2018-12-23T14:20:12.254Z,24.03
2018-12-23T14:22:39.516Z,21.93
2018-12-23T14:25:06.744Z,19.63
2018-12-23T14:27:34.018Z,15.73
2018-12-23T14:30:01.488Z,21.13
2018-12-23T14:32:28.776Z,21.07
2018-12-23T14:34:56.001Z,23.10
2018-12-23T14:37:23.256Z,20.87
2018-12-23T14:40:30.638Z,15.47
2018-12-23T14:42:58.180Z,18.90
2018-12-23T14:45:25.551Z,22.30
2018-12-23T14:47:52.991Z,15.73
2018-12-23T14:50:20.413Z,13.50
2018-12-23T14:52:47.809Z,11.90
2018-12-23T14:55:15.200Z,15.00
2018-12-23T14:57:42.631Z,16.13
2018-12-23T15:00:10.233Z,15.50
2018-12-23T15:02:37.643Z,13.53
2018-12-23T15:05:05.269Z,14.63
2018-12-23T15:07:32.680Z,17.07
2018-12-23T15:10:00.162Z,12.77
2018-12-23T15:12:27.576Z,11.80
2018-12-23T15:14:54.981Z,11.27
2018-12-23T15:17:22.467Z,14.80
2018-12-23T15:19:49.906Z,14.70
2018-12-23T15:22:17.394Z,17.03
2018-12-23T15:24:44.836Z,10.97
2018-12-23T15:27:12.219Z,19.00
2018-12-23T15:29:39.636Z,10.70
2018-12-23T15:32:07.024Z,12.87
2018-12-23T15:34:34.446Z,18.70
2018-12-23T15:37:01.843Z,17.90
2018-12-23T15:39:29.243Z,14.20
2018-12-23T15:41:56.643Z,16.13
2018-12-23T15:44:24.179Z,15.53
2018-12-23T15:46:51.657Z,11.20
2018-12-23T15:49:19.063Z,12.13
2018-12-23T15:51:46.436Z,20.10
2018-12-23T15:54:13.849Z,16.10
2018-12-23T15:56:41.237Z,14.60
2018-12-23T15:59:08.642Z,12.47
2018-12-23T16:01:36.044Z,10.43
2018-12-23T16:04:03.508Z,15.10
2018-12-23T16:06:30.906Z,13.90
2018-12-23T16:08:58.324Z,12.33
2018-12-23T16:11:25.731Z,15.57
2018-12-23T16:13:53.143Z,13.20
2018-12-23T16:16:20.535Z,16.40
2018-12-23T16:18:47.966Z,17.00
2018-12-23T16:21:18.570Z,13.63
2018-12-23T16:23:46.130Z,14.33
2018-12-23T16:26:13.505Z,15.63
2018-12-23T16:28:40.909Z,16.13
2018-12-23T16:31:08.294Z,17.60
2018-12-23T16:33:35.733Z,21.97
2018-12-23T16:36:03.110Z,19.03
2018-12-23T16:38:30.591Z,21.75
2018-12-23T16:40:57.985Z,21.63
2018-12-23T16:43:25.406Z,22.00
2018-12-23T16:45:52.815Z,29.30
2018-12-23T16:48:20.226Z,30.73
2018-12-23T16:50:47.778Z,24.30
2018-12-23T16:53:15.152Z,28.53
2018-12-23T16:55:42.564Z,23.40
2018-12-23T16:58:09.998Z,24.67
2018-12-23T17:00:37.412Z,23.10
2018-12-23T17:03:04.788Z,22.00
2018-12-23T17:05:32.201Z,18.47
2018-12-23T17:07:59.587Z,19.60
2018-12-23T17:10:26.996Z,20.80
2018-12-23T17:12:54.410Z,19.77
2018-12-23T17:15:22.043Z,26.30
2018-12-23T17:17:49.540Z,19.50
2018-12-23T17:20:16.988Z,22.70
2018-12-23T17:22:44.384Z,24.77
2018-12-23T17:25:11.838Z,20.40
2018-12-23T17:27:39.204Z,22.00
2018-12-23T17:30:07.724Z,26.70
2018-12-23T17:32:35.108Z,29.33
2018-12-23T17:35:02.507Z,28.90
2018-12-23T17:37:29.860Z,25.53
2018-12-23T17:39:57.280Z,36.23
2018-12-23T17:42:24.683Z,34.23
2018-12-23T17:44:52.158Z,36.40
2018-12-23T17:47:19.536Z,38.17
2018-12-23T17:49:46.934Z,36.10
2018-12-23T17:52:14.561Z,47.77
2018-12-23T17:54:41.954Z,42.23
2018-12-23T17:57:09.378Z,24.53
2018-12-23T17:59:36.774Z,24.60
2018-12-23T18:02:04.603Z,25.03
2018-12-23T18:04:31.981Z,20.30
2018-12-23T18:07:03.898Z,23.07
2018-12-23T18:09:30.559Z,25.30
2018-12-23T18:11:58.011Z,21.33
2018-12-23T18:14:25.429Z,23.47
2018-12-23T18:16:52.832Z,27.23
2018-12-23T18:19:20.243Z,18.10
2018-12-23T18:21:47.649Z,18.87
2018-12-23T18:24:15.030Z,19.37
2018-12-23T18:26:45.201Z,21.27
2018-12-23T18:29:11.759Z,17.87
2018-12-23T18:31:39.275Z,21.20
2018-12-23T18:34:06.805Z,20.50
2018-12-23T18:36:34.340Z,18.57
2018-12-23T18:39:01.749Z,16.37
2018-12-23T18:41:29.272Z,17.77
2018-12-23T18:43:57.376Z,14.93
2018-12-23T18:46:26.471Z,12.73
2018-12-23T18:48:55.387Z,19.10
2018-12-23T18:51:26.478Z,12.67
2018-12-23T18:53:55.142Z,15.17
2018-12-23T18:56:34.133Z,14.43
2018-12-23T18:59:01.619Z,23.53
2018-12-23T19:01:29.054Z,18.47
2018-12-23T19:03:56.467Z,16.50
2018-12-23T19:06:24.046Z,14.70
2018-12-23T19:08:59.685Z,17.90
2018-12-23T19:11:51.002Z,14.20
2018-12-23T19:14:58.977Z,15.50
2018-12-23T19:18:06.474Z,15.27
2018-12-23T19:21:06.544Z,14.10
2018-12-23T19:24:14.173Z,12.70
2018-12-23T19:27:38.459Z,13.80
2018-12-23T19:30:24.504Z,15.73
2018-12-23T19:33:42.491Z,13.00
2018-12-23T19:36:54.198Z,17.47
2018-12-23T19:39:59.024Z,14.40
2018-12-23T19:43:11.913Z,14.07
2018-12-23T19:46:19.365Z,13.93
2018-12-23T19:49:30.319Z,17.73
2018-12-23T19:52:49.432Z,13.63
2018-12-23T19:55:57.480Z,15.80
2018-12-23T19:58:59.996Z,15.23
2018-12-23T20:02:19.859Z,15.40
2018-12-23T20:05:35.367Z,14.00
2018-12-23T20:08:34.905Z,13.27
2018-12-23T20:11:43.819Z,14.10
2018-12-23T20:14:40.198Z,12.97
2018-12-23T20:17:44.207Z,16.90
2018-12-23T20:21:05.096Z,13.97
2018-12-23T20:24:14.475Z,16.07
2018-12-23T20:27:16.160Z,13.20
2018-12-23T20:30:29.079Z,17.77
2018-12-23T20:33:44.202Z,16.10
2018-12-23T20:37:11.900Z,19.10
2018-12-23T20:40:24.106Z,17.40
2018-12-23T20:43:26.260Z,15.80
2018-12-23T20:46:32.264Z,15.87
2018-12-23T20:49:40.733Z,17.20
2018-12-23T20:52:52.847Z,24.70
2018-12-23T20:55:56.820Z,21.27
2018-12-23T20:58:50.389Z,21.40
2018-12-23T21:01:55.943Z,18.03
2018-12-23T21:05:06.800Z,16.57
2018-12-23T21:08:21.257Z,15.93
2018-12-23T21:11:16.091Z,19.90
2018-12-23T21:14:26.979Z,20.03
2018-12-23T21:17:54.298Z,17.80
2018-12-23T21:20:59.083Z,20.60
2018-12-23T21:24:09.779Z,22.80
2018-12-23T21:27:04.357Z,19.20
2018-12-23T21:30:24.523Z,20.10
2018-12-23T21:33:41.830Z,17.67
2018-12-23T21:36:53.818Z,19.07
2018-12-23T21:39:54.652Z,16.30
2018-12-23T21:42:39.734Z,13.93
2018-12-23T21:45:44.609Z,11.30
2018-12-23T21:48:53.584Z,8.37
2018-12-23T21:52:23.954Z,8.80
2018-12-23T21:55:32.064Z,4.23
2018-12-23T21:59:02.816Z,3.57
2018-12-23T22:02:05.050Z,4.00
2018-12-23T22:05:24.019Z,4.00
2018-12-23T22:08:35.997Z,4.63
2018-12-23T22:11:40.719Z,6.03
2018-12-23T22:14:08.259Z,2.43
2018-12-23T22:16:35.914Z,2.80
2018-12-23T22:19:03.283Z,5.27
2018-12-23T22:21:30.706Z,5.50
2018-12-23T22:23:58.085Z,2.70
2018-12-23T22:26:25.515Z,2.47
2018-12-23T22:28:53.010Z,2.13
2018-12-23T22:31:20.449Z,2.87
2018-12-23T22:33:47.838Z,2.90
2018-12-23T22:36:15.347Z,4.07
2018-12-23T22:38:42.737Z,4.07
2018-12-23T22:41:12.967Z,3.10
2018-12-23T22:43:40.379Z,3.77
2018-12-23T22:46:07.767Z,4.03
2018-12-23T22:48:35.558Z,5.37
2018-12-23T22:51:02.974Z,4.83
2018-12-23T22:53:30.555Z,5.23
2018-12-23T22:55:58.045Z,7.97
2018-12-23T22:58:25.419Z,4.50
2018-12-23T23:00:52.858Z,3.50
2018-12-23T23:03:20.360Z,4.20
2018-12-23T23:05:47.795Z,4.20
2018-12-23T23:08:15.197Z,5.67
2018-12-23T23:10:42.615Z,5.77
2018-12-23T23:13:18.285Z,4.77
2018-12-23T23:15:39.538Z,4.50
2018-12-23T23:18:06.985Z,3.63
2018-12-23T23:20:34.366Z,6.30
2018-12-23T23:23:01.820Z,6.13
2018-12-23T23:25:30.327Z,3.97
2018-12-23T23:27:57.825Z,5.00
2018-12-23T23:30:25.245Z,5.13
2018-12-23T23:32:52.641Z,5.57
2018-12-23T23:35:20.031Z,5.30
2018-12-23T23:37:47.544Z,6.40
2018-12-23T23:40:14.946Z,6.67
2018-12-23T23:42:42.362Z,8.23
2018-12-23T23:45:09.752Z,3.80
2018-12-23T23:47:37.190Z,4.60
2018-12-23T23:50:05.151Z,4.67
2018-12-23T23:52:32.583Z,5.03
2018-12-23T23:54:59.961Z,5.43
2018-12-23T23:57:27.415Z,3.87
2018-12-23T23:59:54.784Z,4.43
